Time;durP1;ratioP1;P1;durP2;ratioP2;P2;SDS_P1;SDS_P2;PMS_P1;PMS_P2;Temp;Humidity;BMP_temperature;BMP_pressure;BME280_temperature;BME280_humidity;BME280_pressure;Samples;Min_cycle;Max_cycle;Signal;HPM_P1;HPM_P2
2022/06/30 00:02:43;;;;;;;26.63;18.70;;;;;;;;;;6188189;28;20033;-79
2022/06/30 00:05:43;;;;;;;25.87;18.27;;;;;;;;;;6186327;28;20053;-78
2022/06/30 00:08:43;;;;;;;27.00;20.93;;;;;;;;;;6196322;28;20046;-78
2022/06/30 00:11:43;;;;;;;24.92;18.58;;;;;;;;;;6189739;28;20093;-78
2022/06/30 00:14:44;;;;;;;23.17;18.70;;;;;;;;;;6195323;28;20017;-79
2022/06/30 00:17:44;;;;;;;29.50;20.27;;;;;;;;;;6188303;28;20072;-78
2022/06/30 00:20:44;;;;;;;25.47;18.57;;;;;;;;;;6200095;28;20019;-78
2022/06/30 00:23:44;;;;;;;23.47;18.63;;;;;;;;;;6186003;28;20022;-78
2022/06/30 00:26:45;;;;;;;23.17;18.37;;;;;;;;;;6196092;28;20027;-78
2022/06/30 00:29:45;;;;;;;23.37;19.87;;;;;;;;;;6200406;28;20053;-78
2022/06/30 00:32:45;;;;;;;23.63;20.33;;;;;;;;;;6195380;28;20092;-78
2022/06/30 00:35:46;;;;;;;21.77;18.80;;;;;;;;;;6186387;28;20465;-79
2022/06/30 00:38:46;;;;;;;28.13;20.37;;;;;;;;;;6195548;28;20022;-78
2022/06/30 00:41:46;;;;;;;25.58;18.75;;;;;;;;;;6194868;28;20073;-78
2022/06/30 00:44:47;;;;;;;27.30;21.63;;;;;;;;;;6203555;28;20046;-78
2022/06/30 00:47:47;;;;;;;26.70;20.03;;;;;;;;;;6190290;28;20015;-78
2022/06/30 00:50:47;;;;;;;22.83;19.30;;;;;;;;;;6196159;28;20017;-78
2022/06/30 00:53:48;;;;;;;23.02;19.52;;;;;;;;;;6203741;28;20538;-78
2022/06/30 00:56:50;;;;;;;26.00;18.97;;;;;;;;;;6188706;28;20019;-78
2022/06/30 00:59:50;;;;;;;;;;;;;;;;;;6196934;28;20031;-78
2022/06/30 01:02:51;;;;;;;25.27;20.40;;;;;;;;;;6186615;28;19930;-78
2022/06/30 01:05:51;;;;;;;30.15;21.13;;;;;;;;;;6196746;28;20017;-79
2022/06/30 01:08:52;;;;;;;25.83;19.47;;;;;;;;;;6197875;28;20042;-79
2022/06/30 01:15:13;;;;;;;25.75;19.30;;;;;;;;;;6184135;28;20434;-79
2022/06/30 01:18:13;;;;;;;23.63;20.45;;;;;;;;;;6199425;28;20414;-79
2022/06/30 01:21:14;;;;;;;26.70;20.70;;;;;;;;;;6205627;28;20064;-79
2022/06/30 01:24:14;;;;;;;24.27;20.60;;;;;;;;;;6198930;28;20416;-79
2022/06/30 01:27:14;;;;;;;26.13;20.67;;;;;;;;;;6195116;28;20080;-80
2022/06/30 01:30:14;;;;;;;28.80;22.23;;;;;;;;;;6197230;28;20031;-79
2022/06/30 01:33:15;;;;;;;22.90;19.40;;;;;;;;;;6202310;28;20015;-79
2022/06/30 01:36:15;;;;;;;24.13;19.20;;;;;;;;;;6207406;28;20033;-79
2022/06/30 01:39:15;;;;;;;23.77;18.43;;;;;;;;;;6212304;28;20041;-81
2022/06/30 01:42:15;;;;;;;25.10;19.27;;;;;;;;;;6206693;28;20021;-79
2022/06/30 01:45:16;;;;;;;28.27;20.07;;;;;;;;;;6207945;28;20026;-80
2022/06/30 01:48:16;;;;;;;26.63;21.23;;;;;;;;;;6189713;28;20089;-79
2022/06/30 01:51:16;;;;;;;24.07;19.60;;;;;;;;;;6199573;28;20084;-79
2022/06/30 01:54:17;;;;;;;23.15;19.48;;;;;;;;;;6201511;28;20018;-79
2022/06/30 01:57:17;;;;;;;22.40;18.67;;;;;;;;;;6209347;28;20390;-79
2022/06/30 02:00:19;;;;;;;28.33;20.00;;;;;;;;;;6204766;28;20010;-80
2022/06/30 02:03:19;;;;;;;25.92;19.48;;;;;;;;;;6205607;28;20337;-79
2022/06/30 02:06:19;;;;;;;24.07;18.63;;;;;;;;;;6195827;28;20022;-80
2022/06/30 02:09:19;;;;;;;24.83;20.00;;;;;;;;;;6210777;28;20041;-79
2022/06/30 02:15:39;;;;;;;24.85;18.88;;;;;;;;;;6194783;28;20466;-80
2022/06/30 02:18:39;;;;;;;29.30;20.50;;;;;;;;;;6191829;28;20029;-79
2022/06/30 02:21:39;;;;;;;26.30;20.33;;;;;;;;;;6206688;28;20021;-79
2022/06/30 02:24:40;;;;;;;28.87;21.40;;;;;;;;;;6202001;28;20077;-79
2022/06/30 02:27:40;;;;;;;26.17;19.70;;;;;;;;;;6194785;28;20434;-80
2022/06/30 02:30:40;;;;;;;26.83;20.63;;;;;;;;;;6187454;28;20429;-80
2022/06/30 02:33:40;;;;;;;26.40;19.47;;;;;;;;;;6201224;28;20021;-80
2022/06/30 02:36:41;;;;;;;24.80;19.10;;;;;;;;;;6202300;28;20064;-80
2022/06/30 02:39:41;;;;;;;28.98;18.33;;;;;;;;;;6199160;28;20022;-80
2022/06/30 02:42:42;;;;;;;26.23;20.77;;;;;;;;;;6204430;28;20022;-80
2022/06/30 02:45:43;;;;;;;25.60;20.20;;;;;;;;;;6199581;28;20117;-80
2022/06/30 02:48:44;;;;;;;27.30;20.60;;;;;;;;;;6201762;28;20014;-81
2022/06/30 02:51:44;;;;;;;27.40;20.45;;;;;;;;;;6194835;28;20017;-80
2022/06/30 02:54:44;;;;;;;26.17;19.70;;;;;;;;;;6206216;28;20014;-80
2022/06/30 02:57:45;;;;;;;24.40;19.30;;;;;;;;;;6199361;28;20026;-80
2022/06/30 03:00:45;;;;;;;23.63;19.00;;;;;;;;;;6198885;28;20465;-80
2022/06/30 03:03:45;;;;;;;24.10;19.17;;;;;;;;;;6205524;28;20069;-81
2022/06/30 03:06:45;;;;;;;29.77;21.77;;;;;;;;;;6199687;28;20018;-80
2022/06/30 03:09:45;;;;;;;33.90;25.20;;;;;;;;;;6194474;28;20092;-81
2022/06/30 03:12:46;;;;;;;32.25;23.45;;;;;;;;;;6209120;28;20029;-80
2022/06/30 03:15:47;;;;;;;33.17;25.57;;;;;;;;;;6200712;28;20088;-80
2022/06/30 03:18:47;;;;;;;37.85;27.73;;;;;;;;;;6202368;28;20018;-79
2022/06/30 03:21:48;;;;;;;34.37;25.37;;;;;;;;;;6203709;28;20049;-80
2022/06/30 03:24:48;;;;;;;39.43;28.90;;;;;;;;;;6208635;28;20072;-81
2022/06/30 03:27:48;;;;;;;34.63;28.73;;;;;;;;;;6203019;28;20026;-81
2022/06/30 03:30:48;;;;;;;37.30;27.48;;;;;;;;;;6194552;28;20022;-81
2022/06/30 03:33:48;;;;;;;33.67;26.83;;;;;;;;;;6195890;28;20501;-80
2022/06/30 03:36:49;;;;;;;31.63;24.77;;;;;;;;;;6201472;28;20014;-80
2022/06/30 03:39:49;;;;;;;33.20;26.43;;;;;;;;;;6186956;28;20394;-81
2022/06/30 03:42:50;;;;;;;34.20;26.13;;;;;;;;;;6206587;28;20018;-81
2022/06/30 03:45:50;;;;;;;31.83;24.03;;;;;;;;;;6210118;28;20010;-82
2022/06/30 03:48:50;;;;;;;33.03;24.45;;;;;;;;;;6202150;28;20022;-80
2022/06/30 03:51:51;;;;;;;32.83;23.40;;;;;;;;;;6195095;28;20057;-80
2022/06/30 03:54:51;;;;;;;33.70;24.17;;;;;;;;;;6207492;28;20018;-80
2022/06/30 03:57:51;;;;;;;29.90;24.50;;;;;;;;;;6204878;28;20053;-81
2022/06/30 04:00:51;;;;;;;30.80;21.97;;;;;;;;;;6191871;28;20430;-81
2022/06/30 04:03:51;;;;;;;28.83;23.55;;;;;;;;;;6203158;28;20097;-80
2022/06/30 04:06:52;;;;;;;30.70;22.60;;;;;;;;;;6195255;28;20024;-80
2022/06/30 04:09:52;;;;;;;27.63;22.00;;;;;;;;;;6202105;28;20042;-80
2022/06/30 04:12:52;;;;;;;30.73;22.63;;;;;;;;;;6203358;28;20010;-80
2022/06/30 04:15:53;;;;;;;31.27;21.47;;;;;;;;;;6205331;28;20355;-80
2022/06/30 04:18:54;;;;;;;29.90;21.50;;;;;;;;;;6199370;28;20563;-82
2022/06/30 04:21:54;;;;;;;27.93;21.27;;;;;;;;;;6204302;28;20010;-81
2022/06/30 04:24:54;;;;;;;26.83;21.65;;;;;;;;;;6210798;28;20083;-80
2022/06/30 04:27:58;;;;;;;28.37;21.23;;;;;;;;;;6195469;28;20033;-80
2022/06/30 04:34:17;;;;;;;27.92;21.52;;;;;;;;;;6186764;28;20030;-81
2022/06/30 04:37:17;;;;;;;26.33;19.47;;;;;;;;;;6195311;28;20167;-80
2022/06/30 04:43:36;;;;;;;25.80;20.13;;;;;;;;;;6197304;28;20095;-81
2022/06/30 04:46:36;;;;;;;28.27;21.60;;;;;;;;;;6199132;28;20153;-80
2022/06/30 04:49:36;;;;;;;25.23;19.30;;;;;;;;;;6191466;28;20034;-80
2022/06/30 04:52:37;;;;;;;29.37;20.47;;;;;;;;;;6187956;28;20030;-80
2022/06/30 04:55:37;;;;;;;23.87;19.53;;;;;;;;;;6189891;28;20532;-80
2022/06/30 04:58:37;;;;;;;24.20;19.93;;;;;;;;;;6190860;28;20022;-80
2022/06/30 05:01:37;;;;;;;26.07;19.53;;;;;;;;;;6197962;28;20017;-80
2022/06/30 05:04:38;;;;;;;24.17;20.90;;;;;;;;;;6189900;28;20020;-81
2022/06/30 05:07:38;;;;;;;26.30;21.07;;;;;;;;;;6193364;28;20042;-80
2022/06/30 05:10:38;;;;;;;22.63;18.20;;;;;;;;;;6206208;28;20078;-81
2022/06/30 05:13:38;;;;;;;24.45;18.10;;;;;;;;;;6199420;28;20020;-80
2022/06/30 05:16:38;;;;;;;23.37;18.73;;;;;;;;;;6186680;28;20073;-80
2022/06/30 05:19:39;;;;;;;27.00;21.43;;;;;;;;;;6198916;28;20033;-81
2022/06/30 05:22:39;;;;;;;28.05;23.85;;;;;;;;;;6194883;28;20119;-80
2022/06/30 05:28:58;;;;;;;26.05;18.52;;;;;;;;;;6198085;28;20655;-80
2022/06/30 05:31:58;;;;;;;24.20;17.37;;;;;;;;;;6209131;28;20069;-80
2022/06/30 05:34:59;;;;;;;23.23;16.37;;;;;;;;;;6200741;28;20022;-80
2022/06/30 05:38:00;;;;;;;22.30;18.23;;;;;;;;;;6198652;28;20022;-80
2022/06/30 05:41:00;;;;;;;23.15;16.95;;;;;;;;;;6202509;28;20026;-80
2022/06/30 05:44:00;;;;;;;;;;;;;;;;;;6197670;28;20538;-80
2022/06/30 05:47:00;;;;;;;21.05;17.73;;;;;;;;;;6202755;28;20000;-81
2022/06/30 05:50:00;;;;;;;;;;;;;;;;;;6191313;28;20022;-80
2022/06/30 05:53:00;;;;;;;22.45;18.60;;;;;;;;;;6196343;28;19909;-80
2022/06/30 05:56:01;;;;;;;24.30;18.40;;;;;;;;;;6195093;28;20022;-81
2022/06/30 05:59:01;;;;;;;24.03;17.47;;;;;;;;;;6184945;28;20034;-81
2022/06/30 06:02:01;;;;;;;23.93;18.27;;;;;;;;;;6186026;28;20489;-81
2022/06/30 06:05:01;;;;;;;21.87;17.73;;;;;;;;;;6184851;28;20552;-81
2022/06/30 06:08:05;;;;;;;23.50;16.13;;;;;;;;;;6187918;28;20366;-80
2022/06/30 06:11:06;;;;;;;23.55;17.50;;;;;;;;;;6188433;28;20025;-81
2022/06/30 06:14:06;;;;;;;23.23;18.17;;;;;;;;;;6181004;28;20015;-80
2022/06/30 06:17:06;;;;;;;24.98;17.42;;;;;;;;;;6193080;28;20026;-81
2022/06/30 06:20:07;;;;;;;24.10;17.77;;;;;;;;;;6186359;28;20015;-81
2022/06/30 06:23:07;;;;;;;20.60;15.52;;;;;;;;;;6186804;28;20081;-81
2022/06/30 06:26:07;;;;;;;21.80;15.77;;;;;;;;;;6190397;28;20026;-81
2022/06/30 06:29:10;;;;;;;21.27;15.77;;;;;;;;;;6188521;28;20313;-81
2022/06/30 06:32:11;;;;;;;24.95;16.27;;;;;;;;;;6205366;28;20014;-81
2022/06/30 06:35:11;;;;;;;21.55;16.33;;;;;;;;;;6201860;28;20033;-81
2022/06/30 06:52:42;;;;;;;24.00;16.02;;;;;;;;;;6193023;28;20888;-82
2022/06/30 06:55:43;;;;;;;19.37;14.83;;;;;;;;;;6203967;28;20045;-81
2022/06/30 06:58:43;;;;;;;16.95;15.13;;;;;;;;;;6200445;28;20022;-81
2022/06/30 07:01:43;;;;;;;21.33;15.03;;;;;;;;;;6194861;28;20025;-80
2022/06/30 07:04:44;;;;;;;18.67;15.87;;;;;;;;;;6201884;28;20304;-81
2022/06/30 07:07:44;;;;;;;;;;;;;;;;;;6202492;28;20038;-80
2022/06/30 07:10:44;;;;;;;;;;;;;;;;;;6213682;28;20365;-81
2022/06/30 07:13:44;;;;;;;;;;;;;;;;;;6202328;28;19959;-80
2022/06/30 07:16:44;;;;;;;19.70;14.10;;;;;;;;;;6202804;28;19910;-80
2022/06/30 07:19:44;;;;;;;21.30;14.90;;;;;;;;;;6196635;28;20474;-80
2022/06/30 07:22:45;;;;;;;18.95;14.98;;;;;;;;;;6199017;28;20014;-81
2022/06/30 07:25:45;;;;;;;18.20;14.65;;;;;;;;;;6201798;28;20018;-81
2022/06/30 07:28:45;;;;;;;20.83;16.60;;;;;;;;;;6205477;28;20090;-81
2022/06/30 07:31:45;;;;;;;22.03;15.30;;;;;;;;;;6191894;28;20019;-81
2022/06/30 07:34:45;;;;;;;16.97;15.17;;;;;;;;;;6201286;28;20022;-81
2022/06/30 07:37:45;;;;;;;;;;;;;;;;;;6210261;28;20087;-80
2022/06/30 07:40:46;;;;;;;18.60;14.85;;;;;;;;;;6195572;28;19910;-81
2022/06/30 07:43:46;;;;;;;17.10;15.33;;;;;;;;;;6204029;28;20042;-80
2022/06/30 07:46:46;;;;;;;18.52;14.40;;;;;;;;;;6205246;28;20085;-82
2022/06/30 07:49:47;;;;;;;17.77;15.77;;;;;;;;;;6188937;28;20387;-81
2022/06/30 07:52:47;;;;;;;15.77;14.02;;;;;;;;;;6193420;28;20849;-81
2022/06/30 07:55:48;;;;;;;16.20;13.05;;;;;;;;;;6189320;28;20064;-81
2022/06/30 07:58:48;;;;;;;15.30;12.47;;;;;;;;;;6185738;28;20068;-81
2022/06/30 08:01:48;;;;;;;16.88;13.90;;;;;;;;;;6197991;28;20599;-81
2022/06/30 08:04:48;;;;;;;17.23;13.93;;;;;;;;;;6192154;28;20080;-81
2022/06/30 08:07:48;;;;;;;17.33;12.43;;;;;;;;;;6191096;28;20037;-81
2022/06/30 08:10:49;;;;;;;15.60;12.67;;;;;;;;;;6185748;28;20045;-81
2022/06/30 08:13:49;;;;;;;17.03;13.30;;;;;;;;;;6180742;28;20025;-82
2022/06/30 08:16:49;;;;;;;19.00;13.13;;;;;;;;;;6189056;28;20006;-81
2022/06/30 08:19:49;;;;;;;17.70;13.33;;;;;;;;;;6191335;28;20038;-81
2022/06/30 08:22:50;;;;;;;21.53;13.23;;;;;;;;;;6195463;28;20025;-81
2022/06/30 08:25:50;;;;;;;21.90;13.87;;;;;;;;;;6205287;28;20018;-81
2022/06/30 08:28:50;;;;;;;20.90;13.40;;;;;;;;;;6203263;28;20025;-81
2022/06/30 08:31:50;;;;;;;18.27;12.50;;;;;;;;;;6207934;28;20010;-81
2022/06/30 08:34:50;;;;;;;17.57;12.90;;;;;;;;;;6197441;28;20116;-82
2022/06/30 08:37:51;;;;;;;24.27;13.10;;;;;;;;;;6183336;28;20016;-81
2022/06/30 08:44:12;;;;;;;16.42;12.93;;;;;;;;;;6185509;28;20045;-82
2022/06/30 08:47:12;;;;;;;15.95;9.93;;;;;;;;;;6206101;28;20105;-81
2022/06/30 08:50:14;;;;;;;17.03;11.40;;;;;;;;;;6186435;28;20462;-81
2022/06/30 08:53:16;;;;;;;13.30;11.25;;;;;;;;;;6205113;28;20093;-81
2022/06/30 08:56:16;;;;;;;17.67;10.10;;;;;;;;;;6183383;28;20038;-81
2022/06/30 08:59:17;;;;;;;16.42;10.18;;;;;;;;;;6196604;28;20017;-81
2022/06/30 09:02:18;;;;;;;16.38;12.15;;;;;;;;;;6204153;28;20018;-81
2022/06/30 09:05:18;;;;;;;16.38;12.93;;;;;;;;;;6205513;28;20018;-82
2022/06/30 09:08:18;;;;;;;18.80;12.43;;;;;;;;;;6205420;28;20042;-81
2022/06/30 09:11:18;;;;;;;14.73;11.67;;;;;;;;;;6202067;28;20018;-82
2022/06/30 09:14:35;;;;;;;17.57;11.00;;;;;;;;;;6201571;28;20433;-81
2022/06/30 09:17:35;;;;;;;13.98;11.30;;;;;;;;;;6198277;28;20116;-81
2022/06/30 09:20:36;;;;;;;20.20;11.73;;;;;;;;;;6194228;28;20565;-81
2022/06/30 09:23:41;;;;;;;13.50;11.55;;;;;;;;;;6201108;28;20017;-82
2022/06/30 09:26:42;;;;;;;14.00;11.00;;;;;;;;;;6195659;28;20014;-82
2022/06/30 09:29:46;;;;;;;15.68;11.48;;;;;;;;;;6201085;28;20070;-81
2022/06/30 09:32:46;;;;;;;17.02;11.27;;;;;;;;;;6202616;28;20057;-81
2022/06/30 09:35:47;;;;;;;15.30;12.47;;;;;;;;;;6207622;28;20418;-81
2022/06/30 09:38:59;;;;;;;23.27;13.25;;;;;;;;;;6198708;28;20072;-82
2022/06/30 09:41:59;;;;;;;19.92;13.23;;;;;;;;;;6201045;28;20018;-81
2022/06/30 09:45:01;;;;;;;13.38;10.88;;;;;;;;;;6186168;28;20085;-80
2022/06/30 09:48:01;;;;;;;13.88;11.50;;;;;;;;;;6188223;28;20030;-81
2022/06/30 09:51:03;;;;;;;17.57;11.90;;;;;;;;;;6199747;28;20015;-81
2022/06/30 09:54:03;;;;;;;14.25;10.75;;;;;;;;;;6197178;28;20520;-80
2022/06/30 09:57:07;;;;;;;15.10;11.70;;;;;;;;;;6190606;28;20018;-80
2022/06/30 10:00:15;;;;;;;17.52;11.38;;;;;;;;;;6193922;28;20398;-80
2022/06/30 10:03:16;;;;;;;13.93;11.50;;;;;;;;;;6205374;28;20104;-80
2022/06/30 10:06:17;;;;;;;20.95;13.50;;;;;;;;;;6200855;28;20018;-80
2022/06/30 10:09:17;;;;;;;17.00;12.55;;;;;;;;;;6193436;28;20046;-81
2022/06/30 10:12:19;;;;;;;26.77;12.27;;;;;;;;;;6197525;28;20010;-81
2022/06/30 10:15:21;;;;;;;16.15;11.85;;;;;;;;;;6199293;28;20038;-80
2022/06/30 10:18:25;;;;;;;16.45;12.13;;;;;;;;;;6194375;28;20522;-81
2022/06/30 10:21:25;;;;;;;13.23;11.35;;;;;;;;;;6193135;28;20018;-81
2022/06/30 10:24:25;;;;;;;13.23;10.95;;;;;;;;;;6186352;28;20092;-80
2022/06/30 10:27:27;;;;;;;16.05;11.82;;;;;;;;;;6186358;28;20104;-80
2022/06/30 10:30:35;;;;;;;13.07;10.68;;;;;;;;;;6190058;28;20029;-80
2022/06/30 10:33:35;;;;;;;13.55;9.75;;;;;;;;;;6200804;28;20010;-80
2022/06/30 10:36:35;;;;;;;11.40;7.37;;;;;;;;;;6216291;28;20025;-80
2022/06/30 10:39:42;;;;;;;10.43;6.90;;;;;;;;;;6200959;28;20112;-80
2022/06/30 10:42:43;;;;;;;10.15;7.40;;;;;;;;;;6209831;28;20130;-80
2022/06/30 10:46:03;;;;;;;14.48;9.35;;;;;;;;;;6189979;28;20133;-80
2022/06/30 10:49:07;;;;;;;11.60;8.30;;;;;;;;;;6198013;28;20034;-80
2022/06/30 10:52:20;;;;;;;11.63;8.10;;;;;;;;;;6199277;28;20018;-79
2022/06/30 10:55:21;;;;;;;11.43;8.73;;;;;;;;;;6185353;28;20560;-80
2022/06/30 10:58:22;;;;;;;9.73;7.60;;;;;;;;;;6189940;28;20032;-79
2022/06/30 11:01:22;;;;;;;10.52;7.40;;;;;;;;;;6201806;28;20061;-80
2022/06/30 11:04:23;;;;;;;8.63;6.80;;;;;;;;;;6205004;28;20103;-80
2022/06/30 11:07:24;;;;;;;11.18;8.32;;;;;;;;;;6202649;28;20043;-79
2022/06/30 11:10:24;;;;;;;11.48;7.28;;;;;;;;;;6187316;28;20026;-79
2022/06/30 11:13:27;;;;;;;12.57;6.80;;;;;;;;;;6205637;28;20091;-79
2022/06/30 11:16:28;;;;;;;13.98;7.72;;;;;;;;;;6197325;28;20019;-79
2022/06/30 11:19:32;;;;;;;9.25;7.05;;;;;;;;;;6213900;28;20489;-79
2022/06/30 11:22:33;;;;;;;11.82;7.38;;;;;;;;;;6209205;28;20057;-80
2022/06/30 11:28:53;;;;;;;10.48;7.15;;;;;;;;;;6194706;28;20022;-79
2022/06/30 11:31:59;;;;;;;9.37;7.33;;;;;;;;;;6197033;28;20555;-79
2022/06/30 11:35:00;;;;;;;9.77;7.15;;;;;;;;;;6189470;28;20257;-80
2022/06/30 11:38:00;;;;;;;8.00;5.50;;;;;;;;;;6193053;28;20069;-80
2022/06/30 11:41:54;;;;;;;7.15;5.00;;;;;;;;;;6194631;28;20262;-80
2022/06/30 11:44:34;;;;;;;9.07;4.47;;;;;;;;;;6190708;28;20026;-80
2022/06/30 11:47:34;;;;;;;7.55;4.63;;;;;;;;;;6190760;28;20113;-80
2022/06/30 11:50:34;;;;;;;6.97;4.60;;;;;;;;;;6187045;28;20026;-80
2022/06/30 11:53:35;;;;;;;9.87;4.63;;;;;;;;;;6193808;28;20023;-80
2022/06/30 11:56:55;;;;;;;6.10;4.50;;;;;;;;;;6199609;28;20022;-80
2022/06/30 12:00:04;;;;;;;9.43;4.80;;;;;;;;;;6186238;28;20110;-80
2022/06/30 12:03:10;;;;;;;8.85;5.00;;;;;;;;;;6180897;28;20026;-80
2022/06/30 12:06:10;;;;;;;9.20;5.43;;;;;;;;;;6194506;28;20053;-80
2022/06/30 12:09:10;;;;;;;6.53;5.50;;;;;;;;;;6181903;28;20042;-80
2022/06/30 12:12:17;;;;;;;6.20;5.15;;;;;;;;;;6191692;28;20279;-80
2022/06/30 12:15:18;;;;;;;9.00;5.25;;;;;;;;;;6186373;28;20080;-80
2022/06/30 12:18:22;;;;;;;8.48;4.63;;;;;;;;;;6180402;28;20394;-81
2022/06/30 12:21:22;;;;;;;8.70;5.45;;;;;;;;;;6199267;28;20018;-81
2022/06/30 12:24:24;;;;;;;9.70;5.27;;;;;;;;;;6193475;28;20080;-81
2022/06/30 12:27:34;;;;;;;6.70;4.65;;;;;;;;;;6206832;28;20265;-80
2022/06/30 12:30:36;;;;;;;5.82;4.90;;;;;;;;;;6195078;28;20057;-81
2022/06/30 12:33:39;;;;;;;9.85;5.22;;;;;;;;;;6212241;28;20018;-81
2022/06/30 12:36:46;;;;;;;8.35;5.43;;;;;;;;;;6208226;28;20018;-80
2022/06/30 12:39:46;;;;;;;13.98;6.78;;;;;;;;;;6196997;28;20620;-80
2022/06/30 12:42:51;;;;;;;6.77;5.97;;;;;;;;;;6193640;28;20073;-80
2022/06/30 12:45:55;;;;;;;6.93;6.22;;;;;;;;;;6207444;28;20030;-80
2022/06/30 12:48:56;;;;;;;10.93;6.90;;;;;;;;;;6190279;28;20410;-80
2022/06/30 12:51:56;;;;;;;10.67;7.10;;;;;;;;;;6197258;28;20018;-80
2022/06/30 12:54:58;;;;;;;10.02;7.20;;;;;;;;;;6194349;28;20076;-80
2022/06/30 12:58:00;;;;;;;12.35;6.60;;;;;;;;;;6192918;28;20014;-80
2022/06/30 13:01:00;;;;;;;10.45;6.15;;;;;;;;;;6194419;28;20022;-80
2022/06/30 13:04:02;;;;;;;8.43;6.70;;;;;;;;;;6198656;28;20773;-81
2022/06/30 13:07:02;;;;;;;12.93;6.00;;;;;;;;;;6179779;28;20026;-80
2022/06/30 13:10:03;;;;;;;7.22;5.38;;;;;;;;;;6187070;28;20050;-80
2022/06/30 13:13:04;;;;;;;12.80;6.05;;;;;;;;;;6191703;28;20065;-80
2022/06/30 13:16:04;;;;;;;11.03;5.50;;;;;;;;;;6183639;28;20054;-80
2022/06/30 13:19:07;;;;;;;6.80;5.35;;;;;;;;;;6181104;28;20026;-79
2022/06/30 13:22:07;;;;;;;9.25;5.63;;;;;;;;;;6184682;28;20037;-81
2022/06/30 13:25:07;;;;;;;7.53;5.93;;;;;;;;;;6191052;28;20022;-80
2022/06/30 13:28:08;;;;;;;11.37;5.37;;;;;;;;;;6185207;28;20289;-81
2022/06/30 13:31:14;;;;;;;7.63;5.43;;;;;;;;;;6189142;28;20027;-81
2022/06/30 13:34:14;;;;;;;14.30;6.80;;;;;;;;;;6197241;28;20550;-81
2022/06/30 13:37:14;;;;;;;8.23;6.07;;;;;;;;;;6195591;28;20079;-81
2022/06/30 13:40:15;;;;;;;9.63;5.73;;;;;;;;;;6204155;28;20421;-81
2022/06/30 13:43:15;;;;;;;9.77;5.90;;;;;;;;;;6198426;28;20724;-80
2022/06/30 13:46:15;;;;;;;7.90;5.93;;;;;;;;;;6189866;28;20269;-80
2022/06/30 13:49:15;;;;;;;8.50;6.20;;;;;;;;;;6194674;28;20029;-80
2022/06/30 13:52:15;;;;;;;12.30;7.50;;;;;;;;;;6183154;28;20459;-80
2022/06/30 13:55:16;;;;;;;10.13;6.85;;;;;;;;;;6212424;28;20061;-81
2022/06/30 13:58:17;;;;;;;11.90;6.20;;;;;;;;;;6193599;28;20040;-80
2022/06/30 14:01:17;;;;;;;10.77;6.70;;;;;;;;;;6187546;28;20030;-80
2022/06/30 14:04:18;;;;;;;8.90;6.20;;;;;;;;;;6187821;28;20311;-80
2022/06/30 14:07:22;;;;;;;10.63;6.93;;;;;;;;;;6198118;28;20442;-80
2022/06/30 14:10:22;;;;;;;11.43;5.80;;;;;;;;;;6190741;28;20027;-80
2022/06/30 14:13:22;;;;;;;10.13;5.77;;;;;;;;;;6195208;28;20010;-80
2022/06/30 14:16:24;;;;;;;7.60;6.27;;;;;;;;;;6197178;28;20053;-80
2022/06/30 14:19:24;;;;;;;11.50;7.50;;;;;;;;;;6200209;28;20041;-80
2022/06/30 14:22:24;;;;;;;12.10;6.33;;;;;;;;;;6215494;28;20029;-80
2022/06/30 14:25:25;;;;;;;10.63;6.30;;;;;;;;;;6181804;28;20538;-79
2022/06/30 14:28:25;;;;;;;7.90;6.18;;;;;;;;;;6198253;28;20352;-80
2022/06/30 14:31:25;;;;;;;10.43;6.80;;;;;;;;;;6202233;28;20109;-80
2022/06/30 14:34:26;;;;;;;9.75;6.05;;;;;;;;;;6196503;28;20441;-80
2022/06/30 14:37:26;;;;;;;;;;;;;;;;;;6202423;28;20026;-81
2022/06/30 14:40:26;;;;;;;11.32;6.70;;;;;;;;;;6186826;28;19917;-81
2022/06/30 14:43:26;;;;;;;;;;;;;;;;;;6205828;28;20022;-80
2022/06/30 14:46:26;;;;;;;11.65;6.68;;;;;;;;;;6205192;28;20324;-80
2022/06/30 14:49:26;;;;;;;;;;;;;;;;;;6205417;28;20072;-80
2022/06/30 14:52:28;;;;;;;15.27;8.38;;;;;;;;;;6196957;28;20377;-80
2022/06/30 14:55:28;;;;;;;14.60;7.07;;;;;;;;;;6201355;28;20018;-80
2022/06/30 14:58:28;;;;;;;;;;;;;;;;;;6196264;28;20018;-80
2022/06/30 15:01:29;;;;;;;10.27;7.53;;;;;;;;;;6196203;28;20392;-79
2022/06/30 15:04:29;;;;;;;;;;;;;;;;;;6205430;28;20025;-79
2022/06/30 15:07:29;;;;;;;14.13;7.30;;;;;;;;;;6207899;28;19914;-80
2022/06/30 15:10:30;;;;;;;;;;;;;;;;;;6207196;28;20034;-80
2022/06/30 15:13:30;;;;;;;13.85;7.50;;;;;;;;;;6210514;28;20366;-79
2022/06/30 15:16:30;;;;;;;;;;;;;;;;;;6214998;28;20011;-80
2022/06/30 15:19:30;;;;;;;13.82;8.88;;;;;;;;;;6220509;28;19921;-80
2022/06/30 15:25:50;;;;;;;14.80;8.30;;;;;;;;;;6192276;28;19996;-80
2022/06/30 15:28:50;;;;;;;;;;;;;;;;;;6185612;28;20100;-80
2022/06/30 15:31:58;;;;;;;14.18;7.90;;;;;;;;;;6201567;28;19909;-80
2022/06/30 15:35:00;;;;;;;10.50;7.72;;;;;;;;;;6188513;28;20010;-80
2022/06/30 15:38:00;;;;;;;13.95;8.57;;;;;;;;;;6205813;28;20042;-79
2022/06/30 15:41:00;;;;;;;;;;;;;;;;;;6196403;28;20022;-80
2022/06/30 15:44:01;;;;;;;17.42;9.20;;;;;;;;;;6199265;28;20011;-80
2022/06/30 15:47:02;;;;;;;13.98;9.73;;;;;;;;;;6197576;28;20030;-80
2022/06/30 15:50:02;;;;;;;16.85;9.38;;;;;;;;;;6199179;28;20668;-81
2022/06/30 15:53:02;;;;;;;;;;;;;;;;;;6200999;28;20018;-80
2022/06/30 15:56:07;;;;;;;15.20;8.77;;;;;;;;;;6196931;28;19909;-80
2022/06/30 15:59:08;;;;;;;19.17;10.02;;;;;;;;;;6209476;28;20033;-80
2022/06/30 16:02:08;;;;;;;11.75;8.75;;;;;;;;;;6211386;28;20022;-80
2022/06/30 16:05:08;;;;;;;12.20;9.20;;;;;;;;;;6200068;28;20022;-80
2022/06/30 16:08:09;;;;;;;22.00;8.83;;;;;;;;;;6204792;28;20078;-79
2022/06/30 16:11:09;;;;;;;12.27;9.00;;;;;;;;;;6211777;28;20133;-79
2022/06/30 16:14:09;;;;;;;;;;;;;;;;;;6188295;28;20489;-79
2022/06/30 16:17:09;;;;;;;25.17;9.27;;;;;;;;;;6205247;28;19905;-80
2022/06/30 16:20:09;;;;;;;18.57;9.87;;;;;;;;;;6207242;28;20021;-79
2022/06/30 16:23:10;;;;;;;;;;;;;;;;;;6189578;28;20056;-80
2022/06/30 16:26:10;;;;;;;20.42;10.73;;;;;;;;;;6195611;28;19918;-79
2022/06/30 16:29:10;;;;;;;15.83;9.70;;;;;;;;;;6177447;28;20023;-79
2022/06/30 16:32:10;;;;;;;16.97;9.67;;;;;;;;;;6187858;28;20022;-80
2022/06/30 16:35:11;;;;;;;16.40;9.20;;;;;;;;;;6176664;28;20777;-80
2022/06/30 16:38:11;;;;;;;19.17;9.40;;;;;;;;;;6177971;28;20800;-80
2022/06/30 16:41:12;;;;;;;16.23;9.60;;;;;;;;;;6186103;28;20097;-80
2022/06/30 16:44:12;;;;;;;13.85;8.90;;;;;;;;;;6182392;28;20042;-80
2022/06/30 16:47:14;;;;;;;14.57;8.80;;;;;;;;;;6175033;28;20046;-80
2022/06/30 16:50:17;;;;;;;13.02;8.27;;;;;;;;;;6190870;28;20018;-80
2022/06/30 16:53:18;;;;;;;17.23;9.30;;;;;;;;;;6180499;28;20018;-80
2022/06/30 16:56:18;;;;;;;16.15;9.50;;;;;;;;;;6189910;28;21113;-80
2022/06/30 16:59:18;;;;;;;12.57;9.98;;;;;;;;;;6202256;28;20109;-79
2022/06/30 17:02:20;;;;;;;11.97;8.70;;;;;;;;;;6191393;28;20100;-80
2022/06/30 17:05:20;;;;;;;23.02;9.10;;;;;;;;;;6187611;28;20029;-79
2022/06/30 17:08:20;;;;;;;16.43;9.33;;;;;;;;;;6187949;28;20043;-80
2022/06/30 17:11:22;;;;;;;19.80;9.77;;;;;;;;;;6186949;28;20046;-80
2022/06/30 17:14:23;;;;;;;17.45;11.18;;;;;;;;;;6184474;28;20089;-80
2022/06/30 17:17:23;;;;;;;16.00;9.97;;;;;;;;;;6193786;28;20049;-80
2022/06/30 17:20:23;;;;;;;25.75;12.30;;;;;;;;;;6179372;28;20057;-79
2022/06/30 17:23:24;;;;;;;25.30;11.50;;;;;;;;;;6186318;28;20026;-80
2022/06/30 17:26:24;;;;;;;22.70;10.60;;;;;;;;;;6186816;28;20195;-79
2022/06/30 17:29:24;;;;;;;20.40;10.97;;;;;;;;;;6214306;28;20695;-79
2022/06/30 17:32:26;;;;;;;14.77;10.93;;;;;;;;;;6193094;28;20073;-79
2022/06/30 17:35:26;;;;;;;15.43;10.80;;;;;;;;;;6186234;28;20668;-80
2022/06/30 17:38:26;;;;;;;15.77;9.33;;;;;;;;;;6191306;28;20029;-80
2022/06/30 17:41:27;;;;;;;17.98;10.20;;;;;;;;;;6189785;28;20076;-79
2022/06/30 17:44:27;;;;;;;15.18;10.50;;;;;;;;;;6187934;28;20089;-80
2022/06/30 17:47:28;;;;;;;17.53;11.30;;;;;;;;;;6200303;28;20022;-79
2022/06/30 17:50:28;;;;;;;16.80;10.17;;;;;;;;;;6206270;28;20018;-80
2022/06/30 17:53:28;;;;;;;18.17;10.87;;;;;;;;;;6205233;28;20033;-80
2022/06/30 17:56:28;;;;;;;16.80;10.10;;;;;;;;;;6189783;28;20669;-80
2022/06/30 17:59:29;;;;;;;17.53;9.13;;;;;;;;;;6190524;28;20037;-80
2022/06/30 18:02:29;;;;;;;18.57;9.83;;;;;;;;;;6180674;28;20547;-80
2022/06/30 18:05:29;;;;;;;25.85;15.05;;;;;;;;;;6185845;28;20655;-80
2022/06/30 18:11:48;;;;;;;17.40;11.00;;;;;;;;;;6186453;28;20026;-80
2022/06/30 18:14:48;;;;;;;21.63;11.17;;;;;;;;;;6192245;28;20078;-80
2022/06/30 18:17:49;;;;;;;20.43;12.00;;;;;;;;;;6190171;28;20084;-80
2022/06/30 18:20:52;;;;;;;19.23;11.13;;;;;;;;;;6195943;28;20022;-81
2022/06/30 18:23:52;;;;;;;15.98;11.05;;;;;;;;;;6203213;28;20071;-80
2022/06/30 18:26:54;;;;;;;19.37;10.70;;;;;;;;;;6191608;28;20014;-81
2022/06/30 18:29:54;;;;;;;18.13;11.90;;;;;;;;;;6205734;28;20030;-80
2022/06/30 18:32:55;;;;;;;24.02;11.18;;;;;;;;;;6183804;28;20407;-80
2022/06/30 18:35:55;;;;;;;18.83;11.40;;;;;;;;;;6191880;28;20098;-80